Time;durP1;ratioP1;P1;durP2;ratioP2;P2;SDS_P1;SDS_P2;PMS_P1;PMS_P2;Temp;Humidity;BMP_temperature;BMP_pressure;BME280_temperature;BME280_humidity;BME280_pressure;Samples;Min_cycle;Max_cycle;Signal;HPM_P1;HPM_P2
2023/02/28 00:00:00;;;;;;;9.83;4.83;;;;;;;;;;6155105;23;20168;-91
2023/02/28 00:03:05;;;;;;;10.67;4.23;;;;;;;;;;6157987;23;20196;-93
2023/02/28 00:06:13;;;;;;;8.97;4.63;;;;;;;;;;6155093;23;20490;-91
2023/02/28 00:09:18;;;;;;;10.00;4.40;;;;;;;;;;6156296;23;20169;-91
2023/02/28 00:13:00;;;;;;;9.53;4.67;;;;;;;;;;6156306;23;20212;-93
2023/02/28 00:16:07;;;;;;;33.57;12.70;;;;;;;;;;6156109;23;20152;-93
2023/02/28 00:19:13;;;;;;;9.33;4.90;;;;;;;;;;6155095;23;20653;-92
2023/02/28 00:22:22;;;;;;;9.87;4.77;;;;;;;;;;6154839;23;20167;-90
2023/02/28 00:25:28;;;;;;;11.00;4.70;;;;;;;;;;6156204;23;20172;-90
2023/02/28 00:28:34;;;;;;;9.87;4.83;;;;;;;;;;6156067;23;20164;-91
2023/02/28 00:31:39;;;;;;;12.93;4.73;;;;;;;;;;6156398;23;20210;-93
2023/02/28 00:34:46;;;;;;;10.87;5.30;;;;;;;;;;6154766;23;20164;-90
2023/02/28 00:37:53;;;;;;;10.53;5.33;;;;;;;;;;6156405;23;20152;-91
2023/02/28 00:41:04;;;;;;;12.67;4.83;;;;;;;;;;6156531;23;20196;-90
2023/02/28 00:44:10;;;;;;;12.60;5.60;;;;;;;;;;6156916;23;20195;-92
2023/02/28 00:47:16;;;;;;;12.47;6.00;;;;;;;;;;6158570;23;20429;-92
2023/02/28 00:50:22;;;;;;;10.47;5.17;;;;;;;;;;6156631;23;20189;-92
2023/02/28 00:53:30;;;;;;;11.10;4.90;;;;;;;;;;6157680;23;20153;-91
2023/02/28 00:56:36;;;;;;;10.63;5.07;;;;;;;;;;6156306;23;20241;-91
2023/02/28 00:59:43;;;;;;;12.40;5.50;;;;;;;;;;6156458;23;20185;-92
2023/02/28 01:02:52;;;;;;;13.77;5.90;;;;;;;;;;6157610;23;20168;-92
2023/02/28 01:05:58;;;;;;;17.07;6.03;;;;;;;;;;6156657;23;20160;-89
2023/02/28 01:09:07;;;;;;;13.83;5.70;;;;;;;;;;6158134;23;20152;-92
2023/02/28 01:12:13;;;;;;;13.20;5.80;;;;;;;;;;6158710;23;20262;-90
2023/02/28 01:15:19;;;;;;;12.63;5.57;;;;;;;;;;6154870;23;20492;-92
2023/02/28 01:18:24;;;;;;;12.90;6.07;;;;;;;;;;6156891;23;20164;-90
2023/02/28 01:21:31;;;;;;;13.40;5.70;;;;;;;;;;6156658;23;20171;-92
2023/02/28 01:24:39;;;;;;;14.27;5.70;;;;;;;;;;6152238;23;20192;-92
2023/02/28 01:27:44;;;;;;;11.70;5.73;;;;;;;;;;6152684;23;20237;-89
2023/02/28 01:30:49;;;;;;;13.13;5.80;;;;;;;;;;6153785;23;20181;-92
2023/02/28 01:33:55;;;;;;;14.47;6.20;;;;;;;;;;6154073;23;20271;-90
2023/02/28 01:37:01;;;;;;;14.23;5.97;;;;;;;;;;6155299;23;20216;-91
2023/02/28 01:40:08;;;;;;;12.93;6.00;;;;;;;;;;6155662;23;20236;-89
2023/02/28 01:43:18;;;;;;;12.57;5.60;;;;;;;;;;6156800;23;20252;-90
2023/02/28 01:46:24;;;;;;;9.30;4.43;;;;;;;;;;6154463;23;20169;-90
2023/02/28 01:49:29;;;;;;;10.13;5.27;;;;;;;;;;6154841;23;20211;-91
2023/02/28 01:52:35;;;;;;;12.00;5.83;;;;;;;;;;6156424;23;20165;-91
2023/02/28 01:55:42;;;;;;;14.10;5.80;;;;;;;;;;6154828;23;20216;-89
2023/02/28 01:58:48;;;;;;;15.83;5.80;;;;;;;;;;6156947;23;20148;-91
2023/02/28 02:02:18;;;;;;;11.27;5.23;;;;;;;;;;6154985;23;20244;-90
2023/02/28 02:05:33;;;;;;;10.97;4.47;;;;;;;;;;6154960;23;20172;-91
2023/02/28 02:08:38;;;;;;;12.67;6.17;;;;;;;;;;6155019;23;20172;-91
2023/02/28 02:11:46;;;;;;;13.23;5.20;;;;;;;;;;6154152;23;20153;-89
2023/02/28 02:19:17;;;;;;;13.80;5.77;;;;;;;;;;6169964;23;20221;-91
2023/02/28 02:22:39;;;;;;;12.40;5.43;;;;;;;;;;6151936;23;20243;-90
2023/02/28 02:25:46;;;;;;;11.53;5.73;;;;;;;;;;6152434;23;20168;-91
2023/02/28 02:29:03;;;;;;;12.07;5.67;;;;;;;;;;6154272;23;20176;-91
2023/02/28 02:32:40;;;;;;;14.03;5.60;;;;;;;;;;6154466;23;20172;-91
2023/02/28 02:35:51;;;;;;;13.30;5.97;;;;;;;;;;6152792;23;20165;-90
2023/02/28 02:39:01;;;;;;;14.47;4.87;;;;;;;;;;6153025;23;20181;-90
2023/02/28 02:42:11;;;;;;;11.47;5.50;;;;;;;;;;6153381;23;20280;-91
2023/02/28 02:45:19;;;;;;;13.43;5.93;;;;;;;;;;6152127;23;20188;-91
2023/02/28 02:48:27;;;;;;;16.83;5.97;;;;;;;;;;6150973;23;20248;-90
2023/02/28 02:51:34;;;;;;;12.83;5.70;;;;;;;;;;6154451;23;20171;-90
2023/02/28 02:54:42;;;;;;;12.23;5.83;;;;;;;;;;6154042;23;20152;-92
2023/02/28 02:57:48;;;;;;;15.33;5.80;;;;;;;;;;6153748;23;20208;-90
2023/02/28 03:01:30;;;;;;;12.60;5.57;;;;;;;;;;6152109;23;20180;-91
2023/02/28 03:04:39;;;;;;;13.30;6.33;;;;;;;;;;6153268;23;20236;-91
2023/02/28 03:07:46;;;;;;;14.80;6.10;;;;;;;;;;6154896;23;20188;-91
2023/02/28 03:10:53;;;;;;;15.60;6.77;;;;;;;;;;6154183;23;20224;-91
2023/02/28 03:18:03;;;;;;;18.87;7.90;;;;;;;;;;6152431;23;20140;-90
2023/02/28 03:21:37;;;;;;;14.63;6.33;;;;;;;;;;6153324;23;20240;-92
2023/02/28 03:24:51;;;;;;;16.50;6.77;;;;;;;;;;6154974;23;20216;-91
2023/02/28 03:28:02;;;;;;;22.20;6.43;;;;;;;;;;6155069;23;20189;-90
2023/02/28 03:31:11;;;;;;;14.37;6.67;;;;;;;;;;6154907;23;20189;-91
2023/02/28 03:34:19;;;;;;;14.80;6.33;;;;;;;;;;6154721;23;20169;-92
2023/02/28 03:37:25;;;;;;;12.47;6.17;;;;;;;;;;6151859;23;20180;-90
2023/02/28 03:40:34;;;;;;;11.67;5.53;;;;;;;;;;6154064;23;20184;-92
2023/02/28 03:43:41;;;;;;;13.87;6.10;;;;;;;;;;6153025;23;20192;-89
2023/02/28 03:46:50;;;;;;;12.53;5.77;;;;;;;;;;6155034;23;20216;-91
2023/02/28 03:49:56;;;;;;;18.03;6.97;;;;;;;;;;6155342;23;20481;-91
2023/02/28 03:53:04;;;;;;;16.00;6.60;;;;;;;;;;6155337;23;20157;-89
2023/02/28 03:56:16;;;;;;;14.73;6.73;;;;;;;;;;6153920;23;20168;-91
2023/02/28 03:59:24;;;;;;;13.77;6.33;;;;;;;;;;6153736;23;20164;-91
2023/02/28 04:02:29;;;;;;;16.30;6.90;;;;;;;;;;6156697;23;20185;-93
2023/02/28 04:05:35;;;;;;;13.60;5.70;;;;;;;;;;6156973;23;20275;-92
2023/02/28 04:08:40;;;;;;;21.13;6.80;;;;;;;;;;6157318;23;20168;-91
2023/02/28 04:11:51;;;;;;;13.20;6.13;;;;;;;;;;6156349;23;20217;-92
2023/02/28 04:15:24;;;;;;;15.17;6.10;;;;;;;;;;6156230;23;20152;-91
2023/02/28 04:18:29;;;;;;;15.10;6.20;;;;;;;;;;6156079;23;20169;-93
2023/02/28 04:21:50;;;;;;;12.63;5.83;;;;;;;;;;6155210;23;20221;-91
2023/02/28 04:24:56;;;;;;;22.60;7.00;;;;;;;;;;6156790;23;20192;-91
2023/02/28 04:28:03;;;;;;;16.83;6.60;;;;;;;;;;6155531;23;20200;-91
2023/02/28 04:31:08;;;;;;;18.50;5.67;;;;;;;;;;6157280;23;20164;-91
2023/02/28 04:34:14;;;;;;;17.70;6.57;;;;;;;;;;6157754;23;20180;-92
2023/02/28 04:37:19;;;;;;;15.97;6.07;;;;;;;;;;6154752;23;20177;-90
2023/02/28 04:40:24;;;;;;;14.47;6.40;;;;;;;;;;6155784;23;20230;-92
2023/02/28 04:43:31;;;;;;;14.10;6.13;;;;;;;;;;6153683;23;20164;-89
2023/02/28 04:46:37;;;;;;;17.00;6.93;;;;;;;;;;6154531;23;20196;-91
2023/02/28 04:49:43;;;;;;;13.40;6.67;;;;;;;;;;6155686;23;20221;-92
2023/02/28 04:52:48;;;;;;;13.80;6.27;;;;;;;;;;6156688;23;20512;-89
2023/02/28 04:55:53;;;;;;;18.60;7.10;;;;;;;;;;6155083;23;20168;-91
2023/02/28 04:59:00;;;;;;;17.97;6.60;;;;;;;;;;6154621;23;20241;-92
2023/02/28 05:02:10;;;;;;;15.07;6.10;;;;;;;;;;6152719;23;20263;-92
2023/02/28 05:05:17;;;;;;;17.73;6.37;;;;;;;;;;6155314;23;20176;-91
2023/02/28 05:08:25;;;;;;;13.97;6.50;;;;;;;;;;6155000;23;20165;-91
2023/02/28 05:11:34;;;;;;;13.37;6.67;;;;;;;;;;6154274;23;20168;-89
2023/02/28 05:15:09;;;;;;;16.80;6.50;;;;;;;;;;6152350;23;20176;-91
2023/02/28 05:18:16;;;;;;;17.33;7.53;;;;;;;;;;6155313;23;20216;-92
2023/02/28 05:21:27;;;;;;;18.37;6.60;;;;;;;;;;6156432;23;20149;-91
2023/02/28 05:24:32;;;;;;;14.23;6.63;;;;;;;;;;6174029;23;20172;-91
2023/02/28 05:27:38;;;;;;;19.73;7.43;;;;;;;;;;6158310;23;20624;-92
2023/02/28 05:30:43;;;;;;;16.63;6.43;;;;;;;;;;6161157;23;20201;-92
2023/02/28 05:33:50;;;;;;;18.77;7.10;;;;;;;;;;6158327;23;20218;-91
2023/02/28 05:36:55;;;;;;;15.57;6.37;;;;;;;;;;6156634;23;20164;-90
2023/02/28 05:40:00;;;;;;;19.47;7.47;;;;;;;;;;6155917;23;20244;-91
2023/02/28 05:43:06;;;;;;;15.60;6.67;;;;;;;;;;6154607;23;20265;-91
2023/02/28 05:46:12;;;;;;;16.10;6.87;;;;;;;;;;6155723;23;20196;-93
2023/02/28 05:49:23;;;;;;;17.90;6.70;;;;;;;;;;6155976;23;20474;-91
2023/02/28 05:52:29;;;;;;;18.27;7.50;;;;;;;;;;6154396;23;20164;-90
2023/02/28 05:55:37;;;;;;;15.13;6.77;;;;;;;;;;6155223;23;20172;-92
2023/02/28 05:58:44;;;;;;;17.23;7.67;;;;;;;;;;6157477;23;20189;-92
2023/02/28 06:02:18;;;;;;;18.23;7.43;;;;;;;;;;6155303;23;20213;-91
2023/02/28 06:05:25;;;;;;;16.20;6.93;;;;;;;;;;6154843;23;20266;-91
2023/02/28 06:08:30;;;;;;;16.27;6.87;;;;;;;;;;6155296;23;20499;-93
2023/02/28 06:11:36;;;;;;;26.53;7.03;;;;;;;;;;6154627;23;20167;-90
2023/02/28 06:14:44;;;;;;;24.33;7.90;;;;;;;;;;6157366;23;20173;-92
2023/02/28 06:17:50;;;;;;;30.27;14.17;;;;;;;;;;6159602;23;20169;-90
2023/02/28 06:20:58;;;;;;;15.97;7.53;;;;;;;;;;6174732;23;20236;-89
2023/02/28 06:24:05;;;;;;;15.43;6.93;;;;;;;;;;6156645;23;20209;-90
2023/02/28 06:27:11;;;;;;;17.60;6.77;;;;;;;;;;6157452;23;20173;-90
2023/02/28 06:30:17;;;;;;;20.13;8.13;;;;;;;;;;6154684;23;20188;-90
2023/02/28 06:33:22;;;;;;;19.67;7.23;;;;;;;;;;6155351;23;20164;-89
2023/02/28 06:36:30;;;;;;;19.13;7.37;;;;;;;;;;6156729;23;20156;-91
2023/02/28 06:39:36;;;;;;;18.27;7.10;;;;;;;;;;6159192;23;20168;-91
2023/02/28 06:42:41;;;;;;;16.43;7.10;;;;;;;;;;6158933;23;20184;-91
2023/02/28 06:45:47;;;;;;;16.73;7.77;;;;;;;;;;6157738;23;20200;-90
2023/02/28 06:48:53;;;;;;;15.90;7.23;;;;;;;;;;6158744;23;20169;-91
2023/02/28 06:52:01;;;;;;;18.37;7.37;;;;;;;;;;6156904;23;20152;-90
2023/02/28 06:55:08;;;;;;;16.07;7.30;;;;;;;;;;6155202;23;20221;-90
2023/02/28 06:58:15;;;;;;;15.57;6.77;;;;;;;;;;6157270;23;20611;-92
2023/02/28 07:01:32;;;;;;;17.03;6.87;;;;;;;;;;6154902;23;20169;-90
2023/02/28 07:04:43;;;;;;;18.50;7.27;;;;;;;;;;6154533;23;20675;-91
2023/02/28 07:07:52;;;;;;;17.83;7.37;;;;;;;;;;6157401;23;20241;-93
2023/02/28 07:10:58;;;;;;;16.20;7.03;;;;;;;;;;6157212;23;20215;-90
2023/02/28 07:14:31;;;;;;;45.87;11.43;;;;;;;;;;6155069;23;20188;-88
2023/02/28 07:17:37;;;;;;;12.43;6.67;;;;;;;;;;6176516;23;20173;-89
2023/02/28 07:20:42;;;;;;;19.47;7.07;;;;;;;;;;6158385;23;20191;-90
2023/02/28 07:23:49;;;;;;;18.77;6.87;;;;;;;;;;6155926;23;20212;-90
2023/02/28 07:26:54;;;;;;;14.53;6.00;;;;;;;;;;6156115;23;20172;-91
2023/02/28 07:30:01;;;;;;;14.47;6.57;;;;;;;;;;6156544;23;20153;-90
2023/02/28 07:33:06;;;;;;;18.73;7.37;;;;;;;;;;6158113;23;20172;-89
2023/02/28 07:36:15;;;;;;;16.10;7.10;;;;;;;;;;6157394;23;20172;-90
2023/02/28 07:39:24;;;;;;;16.83;7.07;;;;;;;;;;6157764;23;20189;-90
2023/02/28 07:42:33;;;;;;;20.00;7.13;;;;;;;;;;6157701;23;20236;-90
2023/02/28 07:45:39;;;;;;;16.67;7.23;;;;;;;;;;6157945;23;20228;-90
2023/02/28 07:48:45;;;;;;;17.57;7.40;;;;;;;;;;6156528;23;20168;-89
2023/02/28 07:51:50;;;;;;;21.63;7.30;;;;;;;;;;6155819;23;20280;-90
2023/02/28 07:54:57;;;;;;;18.83;7.70;;;;;;;;;;6155035;23;20176;-92
2023/02/28 07:58:03;;;;;;;20.70;8.83;;;;;;;;;;6152813;23;20156;-91
2023/02/28 08:01:09;;;;;;;18.73;8.20;;;;;;;;;;6153685;23;20171;-90
2023/02/28 08:04:15;;;;;;;14.30;7.13;;;;;;;;;;6153351;23;20160;-91
2023/02/28 08:07:21;;;;;;;16.87;6.80;;;;;;;;;;6156459;23;20172;-91
2023/02/28 08:10:27;;;;;;;19.83;6.30;;;;;;;;;;6152642;23;20172;-90
2023/02/28 08:13:33;;;;;;;18.10;6.03;;;;;;;;;;6155290;23;20177;-90
2023/02/28 08:16:38;;;;;;;17.67;6.93;;;;;;;;;;6154826;23;20227;-91
2023/02/28 08:19:46;;;;;;;20.00;8.20;;;;;;;;;;6157094;23;20215;-91
2023/02/28 08:22:51;;;;;;;17.90;7.13;;;;;;;;;;6155555;23;20173;-90
2023/02/28 08:26:00;;;;;;;15.00;7.10;;;;;;;;;;6157500;23;20196;-91
2023/02/28 08:29:05;;;;;;;16.30;7.10;;;;;;;;;;6154671;23;20668;-91
2023/02/28 08:32:11;;;;;;;20.07;6.87;;;;;;;;;;6155221;23;20168;-91
2023/02/28 08:35:16;;;;;;;15.80;7.00;;;;;;;;;;6158614;23;20168;-90
2023/02/28 08:38:23;;;;;;;17.27;6.37;;;;;;;;;;6158343;23;20172;-90
2023/02/28 08:41:31;;;;;;;18.73;7.30;;;;;;;;;;6159143;23;20624;-90
2023/02/28 08:44:37;;;;;;;33.03;11.70;;;;;;;;;;6157694;23;20540;-90
2023/02/28 08:47:42;;;;;;;16.60;7.47;;;;;;;;;;6155681;23;20173;-90
2023/02/28 08:50:56;;;;;;;16.47;7.03;;;;;;;;;;6157572;23;20168;-90
2023/02/28 08:54:02;;;;;;;18.87;7.23;;;;;;;;;;6155922;23;20185;-88
2023/02/28 08:57:09;;;;;;;13.70;6.33;;;;;;;;;;6157756;23;20216;-91
2023/02/28 09:00:21;;;;;;;19.33;7.40;;;;;;;;;;6158059;23;20618;-91
2023/02/28 09:03:26;;;;;;;15.50;7.17;;;;;;;;;;6156036;23;20153;-90
2023/02/28 09:06:34;;;;;;;19.07;7.23;;;;;;;;;;6159114;23;20249;-90
2023/02/28 09:09:54;;;;;;;17.90;6.63;;;;;;;;;;6158327;23;20172;-90
2023/02/28 09:13:01;;;;;;;21.83;8.07;;;;;;;;;;6156395;23;20189;-91
2023/02/28 09:16:07;;;;;;;11.77;5.80;;;;;;;;;;6156158;23;20172;-92
2023/02/28 09:19:13;;;;;;;15.70;6.20;;;;;;;;;;6156115;23;20196;-90
2023/02/28 09:22:19;;;;;;;17.00;7.57;;;;;;;;;;6157336;23;20171;-92
2023/02/28 09:25:27;;;;;;;12.33;5.33;;;;;;;;;;6158661;23;20189;-93
2023/02/28 09:28:34;;;;;;;20.43;8.73;;;;;;;;;;6155377;23;20624;-92
2023/02/28 09:31:39;;;;;;;17.50;7.27;;;;;;;;;;6156562;23;20173;-92
2023/02/28 09:34:45;;;;;;;17.47;7.60;;;;;;;;;;6156027;23;20156;-89
2023/02/28 09:37:51;;;;;;;21.23;7.43;;;;;;;;;;6155659;23;20220;-89
2023/02/28 09:40:58;;;;;;;19.47;6.83;;;;;;;;;;6156326;23;20221;-93
2023/02/28 09:44:08;;;;;;;18.10;5.90;;;;;;;;;;6157196;23;20169;-92
2023/02/28 09:47:16;;;;;;;19.50;8.00;;;;;;;;;;6155989;23;20199;-91
2023/02/28 09:50:25;;;;;;;16.87;8.10;;;;;;;;;;6156147;23;20247;-90
2023/02/28 09:53:34;;;;;;;16.17;8.50;;;;;;;;;;6156286;23;20161;-91
2023/02/28 09:56:41;;;;;;;16.90;7.60;;;;;;;;;;6158251;23;20156;-90
2023/02/28 09:59:56;;;;;;;16.93;7.97;;;;;;;;;;6158321;23;20217;-90
2023/02/28 10:03:14;;;;;;;17.87;8.10;;;;;;;;;;6159984;23;20226;-92
2023/02/28 10:06:22;;;;;;;17.13;7.60;;;;;;;;;;6157277;23;20209;-90
2023/02/28 10:09:28;;;;;;;17.97;7.90;;;;;;;;;;6157635;23;20152;-91
2023/02/28 10:12:34;;;;;;;19.33;8.90;;;;;;;;;;6158044;23;20180;-92
2023/02/28 10:15:41;;;;;;;16.70;9.03;;;;;;;;;;6158480;23;20180;-92
2023/02/28 10:18:48;;;;;;;17.87;7.80;;;;;;;;;;6158797;23;20148;-92
2023/02/28 10:21:57;;;;;;;18.03;8.27;;;;;;;;;;6157629;23;20156;-91
2023/02/28 10:25:03;;;;;;;19.30;8.40;;;;;;;;;;6159641;23;20149;-92
2023/02/28 10:31:37;;;;;;;19.00;8.87;;;;;;;;;;6158345;23;20247;-90
2023/02/28 10:34:42;;;;;;;17.73;7.53;;;;;;;;;;6140826;23;20169;-92
2023/02/28 23:32:47;;;;;;;24.97;11.67;;;;;;;;;;6170891;23;20212;-92
2023/02/28 23:35:52;;;;;;;25.97;11.77;;;;;;;;;;6155885;23;20168;-89
2023/02/28 23:38:57;;;;;;;23.23;11.33;;;;;;;;;;6172341;23;20192;-91
2023/02/28 23:42:03;;;;;;;28.20;11.67;;;;;;;;;;6156471;23;20236;-92
2023/02/28 23:45:10;;;;;;;25.67;12.10;;;;;;;;;;6154856;23;20192;-89
2023/02/28 23:48:18;;;;;;;28.73;12.20;;;;;;;;;;6157232;23;20152;-91
2023/02/28 23:51:24;;;;;;;27.03;12.23;;;;;;;;;;6177003;23;20164;-91
2023/02/28 23:54:29;;;;;;;24.40;11.63;;;;;;;;;;6158574;23;20160;-93
2023/02/28 23:57:36;;;;;;;29.47;12.57;;;;;;;;;;6158973;23;20165;-93
